^^
Grace C. Lehan Memorial Weather Station Historical Data
Daily Summary for October 16, 2021 Units:  Both    English   Metric
Daily Weekly Monthly Yearly
  High: Low: Average:
Temperature: 75.4 °F /  24.1 °C 58.2 °F /  14.6 °C 67.8 °F /  19.9 °C
Dew Point: 67.5 °F /  19.7 °C 56.2 °F /  13.4 °C 63.1 °F /  17.3 °C
Humidity: 96% 69.5% 86%
Wind Speed: 4.6mph /  7.4km/h - 0.7mph /  1.1km/h
Wind Gust: 15mph /  24.1km/h - -
Wind- - SSW
Pressure: 29.83 in /  1010 hPa 29.57 in /  1001.2 hPa -
Precipitation: 0.29 in /  7.37 mm    
 
 
Tabular Data for October 16, 2021
Time Temperature Dew Point Pressure Wind Wind Speed Wind Gust Humidity Rainfall Rate (Hourly) solar
00:09 65.4 °F /  18.6 °C 63.3 °F /  17.4 °C 29.83in /  1010hPa Calm     93% 0.00in /  0mm 0 W/m2
00:14 65.3 °F /  18.5 °C 63.2 °F /  17.3 °C 29.83in /  1010hPa Calm     93% 0.00in /  0mm 0 W/m2
00:19 65.2 °F /  18.4 °C 63.3 °F /  17.4 °C 29.83in /  1010hPa Calm     93.3% 0.00in /  0mm 0 W/m2
00:24 65.2 °F /  18.4 °C 63.1 °F /  17.3 °C 29.83in /  1010hPa Calm     93% 0.00in /  0mm 0 W/m2
00:29 65.1 °F /  18.4 °C 63 °F /  17.2 °C 29.83in /  1010hPa Calm     93% 0.00in /  0mm 0 W/m2
00:34 64.9 °F /  18.3 °C 62.9 °F /  17.2 °C 29.83in /  1010hPa Calm     93% 0.00in /  0mm 0 W/m2
00:39 64.8 °F /  18.2 °C 62.7 °F /  17.1 °C 29.83in /  1010hPa Calm     93% 0.00in /  0mm 0 W/m2
00:44 64.7 °F /  18.2 °C 62.8 °F /  17.1 °C 29.83in /  1010hPa Calm     93.6% 0.00in /  0mm 0 W/m2
00:49 64.6 °F /  18.1 °C 62.9 °F /  17.2 °C 29.83in /  1010hPa Calm     94% 0.00in /  0mm 0 W/m2
00:54 64.7 °F /  18.2 °C 62.9 °F /  17.2 °C 29.83in /  1010hPa Calm     94% 0.00in /  0mm 0 W/m2
00:59 64.7 °F /  18.2 °C 62.9 °F /  17.2 °C 29.83in /  1010hPa Calm     94% 0.00in /  0mm 0 W/m2
01:04 64.6 °F /  18.1 °C 62.9 °F /  17.2 °C 29.82in /  1009.7hPa Calm     94% 0.00in /  0mm 0 W/m2
01:09 64.6 °F /  18.1 °C 62.8 °F /  17.1 °C 29.82in /  1009.7hPa Calm     94% 0.00in /  0mm 0 W/m2
01:14 64.6 °F /  18.1 °C 62.8 °F /  17.1 °C 29.82in /  1009.7hPa Calm     94% 0.00in /  0mm 0 W/m2
01:19 64.5 °F /  18.1 °C 62.7 °F /  17.1 °C 29.82in /  1009.7hPa Calm     94% 0.00in /  0mm 0 W/m2
01:24 64.4 °F /  18 °C 62.6 °F /  17 °C 29.82in /  1009.7hPa Calm     94% 0.00in /  0mm 0 W/m2
01:29 64.4 °F /  18 °C 62.6 °F /  17 °C 29.82in /  1009.7hPa Calm     94% 0.00in /  0mm 0 W/m2
01:34 64.3 °F /  17.9 °C 62.6 °F /  17 °C 29.82in /  1009.7hPa Calm     94% 0.00in /  0mm 0 W/m2
01:39 64.3 °F /  17.9 °C 62.5 °F /  16.9 °C 29.82in /  1009.7hPa Calm     94% 0.00in /  0mm 0 W/m2
01:44 64.2 °F /  17.9 °C 62.4 °F /  16.9 °C 29.82in /  1009.7hPa Calm     94% 0.00in /  0mm 0 W/m2
01:49 64.1 °F /  17.8 °C 62.3 °F /  16.8 °C 29.82in /  1009.7hPa Calm     94% 0.00in /  0mm 0 W/m2
01:54 64 °F /  17.8 °C 62.2 °F /  16.8 °C 29.82in /  1009.7hPa Calm     94% 0.00in /  0mm 0 W/m2
01:59 63.9 °F /  17.7 °C 62.1 °F /  16.7 °C 29.82in /  1009.7hPa Calm     94% 0.00in /  0mm 0 W/m2
02:04 63.8 °F /  17.7 °C 62 °F /  16.7 °C 29.82in /  1009.7hPa Calm     94% 0.00in /  0mm 0 W/m2
02:09 63.7 °F /  17.6 °C 62 °F /  16.7 °C 29.82in /  1009.7hPa Calm     94% 0.00in /  0mm 0 W/m2
02:14 63.7 °F /  17.6 °C 62 °F /  16.7 °C 29.82in /  1009.7hPa Calm     94% 0.00in /  0mm 0 W/m2
02:19 63.7 °F /  17.6 °C 62 °F /  16.7 °C 29.82in /  1009.7hPa Calm     94% 0.00in /  0mm 0 W/m2
02:24 63.7 °F /  17.6 °C 61.9 °F /  16.6 °C 29.82in /  1009.7hPa Calm     94% 0.00in /  0mm 0 W/m2
02:29 63.6 °F /  17.6 °C 61.9 °F /  16.6 °C 29.81in /  1009.4hPa Calm     94% 0.00in /  0mm 0 W/m2
02:34 63.6 °F /  17.6 °C 61.8 °F /  16.6 °C 29.81in /  1009.4hPa Calm     94% 0.00in /  0mm 0 W/m2
02:39 63.5 °F /  17.5 °C 61.8 °F /  16.6 °C 29.81in /  1009.4hPa Calm     94% 0.00in /  0mm 0 W/m2
02:44 63.4 °F /  17.4 °C 61.7 °F /  16.5 °C 29.81in /  1009.4hPa Calm     94.1% 0.00in /  0mm 0 W/m2
02:49 63.4 °F /  17.4 °C 62 °F /  16.7 °C 29.80in /  1009hPa Calm     95% 0.00in /  0mm 0 W/m2
02:54 63.4 °F /  17.4 °C 61.7 °F /  16.5 °C 29.80in /  1009hPa Calm     94% 0.00in /  0mm 0 W/m2
02:59 63.3 °F /  17.4 °C 61.6 °F /  16.4 °C 29.80in /  1009hPa Calm     94% 0.00in /  0mm 0 W/m2
03:04 63.3 °F /  17.4 °C 61.5 °F /  16.4 °C 29.80in /  1009hPa Calm     94% 0.00in /  0mm 0 W/m2
03:09 63.2 °F /  17.3 °C 61.5 °F /  16.4 °C 29.80in /  1009hPa Calm     94% 0.00in /  0mm 0 W/m2
03:14 63.1 °F /  17.3 °C 61.4 °F /  16.3 °C 29.80in /  1009hPa Calm     94% 0.00in /  0mm 0 W/m2
03:19 63.1 °F /  17.3 °C 61.5 °F /  16.4 °C 29.79in /  1008.7hPa Calm     94.7% 0.00in /  0mm 0 W/m2
03:24 63 °F /  17.2 °C 61.5 °F /  16.4 °C 29.79in /  1008.7hPa Calm     95% 0.00in /  0mm 0 W/m2
03:29 62.9 °F /  17.2 °C 61.5 °F /  16.4 °C 29.79in /  1008.7hPa Calm     95% 0.00in /  0mm 0 W/m2
03:34 62.9 °F /  17.2 °C 61.5 °F /  16.4 °C 29.79in /  1008.7hPa Calm     95% 0.00in /  0mm 0 W/m2
03:39 62.9 °F /  17.2 °C 61.5 °F /  16.4 °C 29.79in /  1008.7hPa Calm     95% 0.00in /  0mm 0 W/m2
03:44 62.9 °F /  17.2 °C 61.5 °F /  16.4 °C 29.79in /  1008.7hPa Calm     95% 0.00in /  0mm 0 W/m2
03:49 63 °F /  17.2 °C 61.5 °F /  16.4 °C 29.79in /  1008.7hPa Calm     95% 0.00in /  0mm 0 W/m2
03:54 63 °F /  17.2 °C 61.6 °F /  16.4 °C 29.79in /  1008.7hPa Calm     95% 0.00in /  0mm 0 W/m2
03:59 63 °F /  17.2 °C 61.6 °F /  16.4 °C 29.78in /  1008.4hPa Calm     95% 0.00in /  0mm 0 W/m2
04:04 63.2 °F /  17.3 °C 61.8 °F /  16.6 °C 29.78in /  1008.4hPa Calm     95% 0.00in /  0mm 0 W/m2
04:09 63.3 °F /  17.4 °C 61.9 °F /  16.6 °C 29.78in /  1008.4hPa Calm     95% 0.00in /  0mm 0 W/m2
04:14 63.3 °F /  17.4 °C 61.9 °F /  16.6 °C 29.78in /  1008.4hPa Calm     95% 0.00in /  0mm 0 W/m2
04:19 63.2 °F /  17.3 °C 61.8 °F /  16.6 °C 29.78in /  1008.4hPa Calm     95% 0.00in /  0mm 0 W/m2
04:24 63.1 °F /  17.3 °C 61.6 °F /  16.4 °C 29.78in /  1008.4hPa Calm     95% 0.00in /  0mm 0 W/m2
04:29 63 °F /  17.2 °C 61.5 °F /  16.4 °C 29.78in /  1008.4hPa Calm     95% 0.00in /  0mm 0 W/m2
04:34 62.8 °F /  17.1 °C 61.4 °F /  16.3 °C 29.77in /  1008hPa Calm     95% 0.00in /  0mm 0 W/m2
04:39 62.9 °F /  17.2 °C 61.4 °F /  16.3 °C 29.77in /  1008hPa Calm     95% 0.00in /  0mm 0 W/m2
04:44 63 °F /  17.2 °C 61.5 °F /  16.4 °C 29.77in /  1008hPa Calm     95% 0.00in /  0mm 0 W/m2
04:49 63.1 °F /  17.3 °C 61.7 °F /  16.5 °C 29.77in /  1008hPa Calm     95.2% 0.00in /  0mm 0 W/m2
04:54 63.3 °F /  17.4 °C 61.9 °F /  16.6 °C 29.77in /  1008hPa Calm     95.3% 0.00in /  0mm 0 W/m2
04:59 63.3 °F /  17.4 °C 61.9 °F /  16.6 °C 29.78in /  1008.4hPa Calm     95% 0.00in /  0mm 0 W/m2
05:04 63.1 °F /  17.3 °C 61.7 °F /  16.5 °C 29.78in /  1008.4hPa Calm     95% 0.00in /  0mm 0 W/m2
05:09 62.8 °F /  17.1 °C 61.4 °F /  16.3 °C 29.77in /  1008hPa Calm     95% 0.00in /  0mm 0 W/m2
05:14 62.7 °F /  17.1 °C 61.2 °F /  16.2 °C 29.77in /  1008hPa Calm     95% 0.00in /  0mm 0 W/m2
05:19 62.6 °F /  17 °C 61.2 °F /  16.2 °C 29.78in /  1008.4hPa Calm     95% 0.00in /  0mm 0 W/m2
05:24 62.7 °F /  17.1 °C 61.2 °F /  16.2 °C 29.78in /  1008.4hPa Calm     95% 0.00in /  0mm 0 W/m2
05:29 62.7 °F /  17.1 °C 61.3 °F /  16.3 °C 29.78in /  1008.4hPa Calm     95% 0.00in /  0mm 0 W/m2
05:34 62.8 °F /  17.1 °C 61.4 °F /  16.3 °C 29.78in /  1008.4hPa Calm     95% 0.00in /  0mm 0 W/m2
05:39 62.9 °F /  17.2 °C 61.4 °F /  16.3 °C 29.77in /  1008hPa Calm     95% 0.00in /  0mm 0 W/m2
05:44 62.9 °F /  17.2 °C 61.5 °F /  16.4 °C 29.77in /  1008hPa Calm     95.1% 0.00in /  0mm 0 W/m2
05:49 63 °F /  17.2 °C 61.9 °F /  16.6 °C 29.78in /  1008.4hPa Calm     96% 0.00in /  0mm 0 W/m2
05:54 63.2 °F /  17.3 °C 62 °F /  16.7 °C 29.78in /  1008.4hPa Calm     96% 0.00in /  0mm 0 W/m2
05:59 63.2 °F /  17.3 °C 62 °F /  16.7 °C 29.77in /  1008hPa Calm     96% 0.00in /  0mm 0 W/m2
06:04 63.2 °F /  17.3 °C 62 °F /  16.7 °C 29.77in /  1008hPa Calm     96% 0.00in /  0mm 0 W/m2
06:09 63.2 °F /  17.3 °C 62 °F /  16.7 °C 29.77in /  1008hPa Calm     96% 0.00in /  0mm 0 W/m2
06:14 63.1 °F /  17.3 °C 62 °F /  16.7 °C 29.77in /  1008hPa Calm     96% 0.00in /  0mm 0 W/m2
06:19 63.1 °F /  17.3 °C 61.9 °F /  16.6 °C 29.77in /  1008hPa Calm     96% 0.00in /  0mm 0 W/m2
06:24 63.1 °F /  17.3 °C 61.9 °F /  16.6 °C 29.78in /  1008.4hPa Calm     96% 0.00in /  0mm 0 W/m2
06:29 63.1 °F /  17.3 °C 61.9 °F /  16.6 °C 29.78in /  1008.4hPa Calm     96% 0.00in /  0mm 0 W/m2
06:34 63.1 °F /  17.3 °C 61.9 °F /  16.6 °C 29.78in /  1008.4hPa Calm     96% 0.00in /  0mm 0 W/m2
06:39 63 °F /  17.2 °C 61.9 °F /  16.6 °C 29.77in /  1008hPa Calm     96% 0.00in /  0mm 0 W/m2
06:44 63.1 °F /  17.3 °C 62 °F /  16.7 °C 29.77in /  1008hPa Calm     96% 0.00in /  0mm 0 W/m2
06:49 63.3 °F /  17.4 °C 62.1 °F /  16.7 °C 29.77in /  1008hPa Calm     96% 0.00in /  0mm 0 W/m2
06:54 63.4 °F /  17.4 °C 62.2 °F /  16.8 °C 29.77in /  1008hPa Calm     96% 0.00in /  0mm 0 W/m2
06:59 63.5 °F /  17.5 °C 62.3 °F /  16.8 °C 29.77in /  1008hPa Calm     96% 0.00in /  0mm 0 W/m2
07:04 63.5 °F /  17.5 °C 62.3 °F /  16.8 °C 29.77in /  1008hPa Calm     96% 0.00in /  0mm 0 W/m2
07:09 63.5 °F /  17.5 °C 62.4 °F /  16.9 °C 29.77in /  1008hPa Calm     96% 0.00in /  0mm 5 W/m2
07:14 63.6 °F /  17.6 °C 62.4 °F /  16.9 °C 29.77in /  1008hPa Calm     96% 0.00in /  0mm 5 W/m2
07:19 63.7 °F /  17.6 °C 62.5 °F /  16.9 °C 29.77in /  1008hPa Calm     96% 0.00in /  0mm 5 W/m2
07:24 63.8 °F /  17.7 °C 62.6 °F /  17 °C 29.77in /  1008hPa Calm     96% 0.00in /  0mm 9 W/m2
07:29 63.8 °F /  17.7 °C 62.7 °F /  17.1 °C 29.77in /  1008hPa Calm     96% 0.00in /  0mm 9 W/m2
07:34 63.9 °F /  17.7 °C 62.8 °F /  17.1 °C 29.77in /  1008hPa Calm     96% 0.00in /  0mm 9 W/m2
07:39 64 °F /  17.8 °C 62.9 °F /  17.2 °C 29.77in /  1008hPa Calm   1mph /  1.6km/h 96% 0.00in /  0mm 7 W/m2
07:44 64.1 °F /  17.8 °C 63 °F /  17.2 °C 29.77in /  1008hPa Calm   1mph /  1.6km/h 96% 0.00in /  0mm 9 W/m2
07:49 64.3 °F /  17.9 °C 63.1 °F /  17.3 °C 29.77in /  1008hPa Calm   1mph /  1.6km/h 96% 0.00in /  0mm 14 W/m2
07:54 64.4 °F /  18 °C 63.2 °F /  17.3 °C 29.77in /  1008hPa Calm   1mph /  1.6km/h 96% 0.00in /  0mm 37 W/m2
07:59 64.5 °F /  18.1 °C 63.3 °F /  17.4 °C 29.77in /  1008hPa Calm   1mph /  1.6km/h 96% 0.00in /  0mm 49 W/m2
08:00 64.6 °F /  18.1 °C 63.4 °F /  17.4 °C 29.77in /  1008hPa Calm   1mph /  1.6km/h 96% 0.00in /  0mm 49 W/m2
08:09 64.9 °F /  18.3 °C 63.7 °F /  17.6 °C 29.77in /  1008hPa Calm     96% 0.00in /  0mm 60 W/m2
08:14 65 °F /  18.3 °C 63.9 °F /  17.7 °C 29.77in /  1008hPa Calm     96% 0.00in /  0mm 46 W/m2
08:19 65.2 °F /  18.4 °C 64 °F /  17.8 °C 29.77in /  1008hPa Calm     96% 0.00in /  0mm 44 W/m2
08:24 65.4 °F /  18.6 °C 64.2 °F /  17.9 °C 29.77in /  1008hPa Calm     96% 0.00in /  0mm 62 W/m2
08:29 65.6 °F /  18.7 °C 64.4 °F /  18 °C 29.77in /  1008hPa Calm     96% 0.00in /  0mm 70 W/m2
08:34 65.8 °F /  18.8 °C 64.6 °F /  18.1 °C 29.77in /  1008hPa Calm     96% 0.00in /  0mm 54 W/m2
08:39 65.9 °F /  18.8 °C 64.8 °F /  18.2 °C 29.76in /  1007.7hPa Calm     96% 0.00in /  0mm 91 W/m2
08:44 66.2 °F /  19 °C 65 °F /  18.3 °C 29.76in /  1007.7hPa Calm     96% 0.00in /  0mm 118 W/m2
08:49 66.4 °F /  19.1 °C 65.3 °F /  18.5 °C 29.76in /  1007.7hPa Calm     96% 0.00in /  0mm 151 W/m2
08:54 66.8 °F /  19.3 °C 65.6 °F /  18.7 °C 29.75in /  1007.3hPa Calm   1mph /  1.6km/h 96% 0.00in /  0mm 287 W/m2
08:59 67.3 °F /  19.6 °C 66.1 °F /  18.9 °C 29.75in /  1007.3hPa Calm   1mph /  1.6km/h 96% 0.00in /  0mm 264 W/m2
09:04 67.5 °F /  19.7 °C 66.3 °F /  19.1 °C 29.75in /  1007.3hPa Calm   1mph /  1.6km/h 96% 0.00in /  0mm 221 W/m2
09:09 67.8 °F /  19.9 °C 66.4 °F /  19.1 °C 29.75in /  1007.3hPa SSW 0.3mph /  0.5km/h 4mph /  6.4km/h 95.4% 0.00in /  0mm 267 W/m2
09:14 68.1 °F /  20.1 °C 66.3 °F /  19.1 °C 29.75in /  1007.3hPa Calm   4mph /  6.4km/h 94% 0.00in /  0mm 320 W/m2
09:19 68.9 °F /  20.5 °C 67 °F /  19.4 °C 29.75in /  1007.3hPa Calm   4mph /  6.4km/h 93.5% 0.00in /  0mm 371 W/m2
09:24 69.8 °F /  21 °C 67.5 °F /  19.7 °C 29.75in /  1007.3hPa SSW 0.2mph /  0.3km/h 4mph /  6.4km/h 92.3% 0.00in /  0mm 396 W/m2
09:29 70.8 °F /  21.6 °C 67.4 °F /  19.7 °C 29.75in /  1007.3hPa South 0.2mph /  0.3km/h 5mph /  8km/h 89.1% 0.00in /  0mm 388 W/m2
09:34 71.7 °F /  22.1 °C 67.1 °F /  19.5 °C 29.75in /  1007.3hPa SSW 0.3mph /  0.5km/h 5mph /  8km/h 85.6% 0.00in /  0mm 411 W/m2
09:39 72.4 °F /  22.4 °C 67.2 °F /  19.6 °C 29.75in /  1007.3hPa SW 1.3mph /  2.1km/h 11mph /  17.7km/h 83.5% 0.00in /  0mm 446 W/m2
09:44 73.1 °F /  22.8 °C 66.9 °F /  19.4 °C 29.75in /  1007.3hPa SSW 0.4mph /  0.6km/h 11mph /  17.7km/h 81.1% 0.00in /  0mm 381 W/m2
09:49 73.3 °F /  22.9 °C 66.2 °F /  19 °C 29.74in /  1007hPa South 1.3mph /  2.1km/h 11mph /  17.7km/h 78.6% 0.00in /  0mm 339 W/m2
09:54 73.2 °F /  22.9 °C 65.8 °F /  18.8 °C 29.74in /  1007hPa SSW 1.3mph /  2.1km/h 11mph /  17.7km/h 77.4% 0.00in /  0mm 366 W/m2
09:59 73.2 °F /  22.9 °C 65.9 °F /  18.8 °C 29.75in /  1007.3hPa SSW 1.6mph /  2.6km/h 11mph /  17.7km/h 77.8% 0.00in /  0mm 366 W/m2
10:04 73.3 °F /  22.9 °C 65.7 °F /  18.7 °C 29.74in /  1007hPa SW 1.7mph /  2.7km/h 11mph /  17.7km/h 77% 0.00in /  0mm 285 W/m2
10:09 73.3 °F /  22.9 °C 65.7 °F /  18.7 °C 29.74in /  1007hPa South 0.5mph /  0.8km/h 6mph /  9.7km/h 77% 0.00in /  0mm 385 W/m2
10:14 73.3 °F /  22.9 °C 65.3 °F /  18.5 °C 29.74in /  1007hPa South 1.1mph /  1.8km/h 6mph /  9.7km/h 76% 0.00in /  0mm 241 W/m2
10:19 73.1 °F /  22.8 °C 65.4 °F /  18.6 °C 29.74in /  1007hPa South 0.9mph /  1.4km/h 6mph /  9.7km/h 77% 0.00in /  0mm 237 W/m2
10:24 72.9 °F /  22.7 °C 65.3 °F /  18.5 °C 29.74in /  1007hPa South 1.4mph /  2.3km/h 7mph /  11.3km/h 77% 0.00in /  0mm 234 W/m2
10:29 72.7 °F /  22.6 °C 64.9 °F /  18.3 °C 29.74in /  1007hPa South 1.6mph /  2.6km/h 9mph /  14.5km/h 76.5% 0.00in /  0mm 172 W/m2
10:34 72.5 °F /  22.5 °C 64.6 °F /  18.1 °C 29.74in /  1007hPa SSW 0.6mph /  1km/h 9mph /  14.5km/h 76.4% 0.00in /  0mm 141 W/m2
10:39 72.2 °F /  22.3 °C 64.6 °F /  18.1 °C 29.74in /  1007hPa South 0.2mph /  0.3km/h 7mph /  11.3km/h 77% 0.00in /  0mm 142 W/m2
10:44 72.1 °F /  22.3 °C 64.9 °F /  18.3 °C 29.74in /  1007hPa SSW 0.1mph /  0.2km/h 7mph /  11.3km/h 78% 0.00in /  0mm 160 W/m2
10:49 72.1 °F /  22.3 °C 65 °F /  18.3 °C 29.74in /  1007hPa South 0.3mph /  0.5km/h 7mph /  11.3km/h 78.4% 0.00in /  0mm 179 W/m2
10:54 72.1 °F /  22.3 °C 64.8 °F /  18.2 °C 29.74in /  1007hPa South 0.5mph /  0.8km/h 7mph /  11.3km/h 78% 0.00in /  0mm 216 W/m2
10:59 72.1 °F /  22.3 °C 65.1 °F /  18.4 °C 29.73in /  1006.7hPa South 0.4mph /  0.6km/h 7mph /  11.3km/h 78.7% 0.00in /  0mm 244 W/m2
11:04 72.2 °F /  22.3 °C 65 °F /  18.3 °C 29.73in /  1006.7hPa South 0.4mph /  0.6km/h 7mph /  11.3km/h 78% 0.00in /  0mm 239 W/m2
11:09 72.4 °F /  22.4 °C 65.2 °F /  18.4 °C 29.73in /  1006.7hPa SSW 0.2mph /  0.3km/h 4mph /  6.4km/h 78% 0.00in /  0mm 221 W/m2
11:14 72.7 °F /  22.6 °C 65.2 °F /  18.4 °C 29.73in /  1006.7hPa SSE 0.3mph /  0.5km/h 4mph /  6.4km/h 77.3% 0.00in /  0mm 243 W/m2
11:19 73 °F /  22.8 °C 65.7 °F /  18.7 °C 29.73in /  1006.7hPa SSW 0.3mph /  0.5km/h 4mph /  6.4km/h 78% 0.00in /  0mm 243 W/m2
11:24 73.3 °F /  22.9 °C 65.5 °F /  18.6 °C 29.73in /  1006.7hPa South 1.2mph /  1.9km/h 5mph /  8km/h 76.5% 0.00in /  0mm 202 W/m2
11:29 73.4 °F /  23 °C 65.2 °F /  18.4 °C 29.73in /  1006.7hPa South 1mph /  1.6km/h 5mph /  8km/h 75.6% 0.00in /  0mm 190 W/m2
11:34 73.3 °F /  22.9 °C 65.1 °F /  18.4 °C 29.73in /  1006.7hPa SW 0.7mph /  1.1km/h 6mph /  9.7km/h 75.5% 0.00in /  0mm 190 W/m2
11:39 73.3 °F /  22.9 °C 65.3 °F /  18.5 °C 29.73in /  1006.7hPa SSW 0.4mph /  0.6km/h 6mph /  9.7km/h 76% 0.00in /  0mm 190 W/m2
11:44 73.4 °F /  23 °C 65.4 °F /  18.6 °C 29.74in /  1007hPa SW 0.3mph /  0.5km/h 6mph /  9.7km/h 76% 0.00in /  0mm 176 W/m2
11:49 73.3 °F /  22.9 °C 65.4 °F /  18.6 °C 29.74in /  1007hPa SSW 1.6mph /  2.6km/h 7mph /  11.3km/h 76.2% 0.00in /  0mm 176 W/m2
11:53 73.3 °F /  22.9 °C 65.5 °F /  18.6 °C 29.73in /  1006.7hPa WSW 0.4mph /  0.6km/h 7mph /  11.3km/h 76.5% 0.00in /  0mm 181 W/m2
12:09 73.5 °F /  23.1 °C 65.5 °F /  18.6 °C 29.70in /  1005.6hPa South 0.5mph /  0.8km/h 4mph /  6.4km/h 76% 0.00in /  0mm 250 W/m2
12:14 73.6 °F /  23.1 °C 65.5 °F /  18.6 °C 29.70in /  1005.6hPa South 0.8mph /  1.3km/h 6mph /  9.7km/h 76% 0.00in /  0mm 297 W/m2
12:19 73.7 °F /  23.2 °C 65.7 °F /  18.7 °C 29.71in /  1006hPa South 1.1mph /  1.8km/h 6mph /  9.7km/h 76% 0.00in /  0mm 316 W/m2
12:24 73.9 °F /  23.3 °C 65.5 °F /  18.6 °C 29.70in /  1005.6hPa South 1.5mph /  2.4km/h 7mph /  11.3km/h 75% 0.00in /  0mm 301 W/m2
12:29 74.2 °F /  23.4 °C 65 °F /  18.3 °C 29.70in /  1005.6hPa South 3.4mph /  5.5km/h 15mph /  24.1km/h 73.1% 0.00in /  0mm 253 W/m2
12:34 74.2 °F /  23.4 °C 64.9 °F /  18.3 °C 29.70in /  1005.6hPa SSW 2.1mph /  3.4km/h 15mph /  24.1km/h 72.7% 0.00in /  0mm 274 W/m2
12:39 74.2 °F /  23.4 °C 64.6 °F /  18.1 °C 29.70in /  1005.6hPa South 3mph /  4.8km/h 11mph /  17.7km/h 72% 0.00in /  0mm 274 W/m2
12:44 74.2 °F /  23.4 °C 64.7 °F /  18.2 °C 29.69in /  1005.3hPa SSW 2.5mph /  4km/h 15mph /  24.1km/h 72.2% 0.00in /  0mm 227 W/m2
12:49 74.2 °F /  23.4 °C 64.6 °F /  18.1 °C 29.69in /  1005.3hPa South 0.9mph /  1.4km/h 15mph /  24.1km/h 72% 0.00in /  0mm 229 W/m2
12:54 74.2 °F /  23.4 °C 64.2 °F /  17.9 °C 29.68in /  1005hPa South 2.5mph /  4km/h 15mph /  24.1km/h 71.1% 0.00in /  0mm 223 W/m2
12:59 74.1 °F /  23.4 °C 64.4 °F /  18 °C 29.68in /  1005hPa South 1.1mph /  1.8km/h 15mph /  24.1km/h 71.7% 0.00in /  0mm 207 W/m2
13:04 74 °F /  23.3 °C 64.5 °F /  18.1 °C 29.68in /  1005hPa South 1.4mph /  2.3km/h 15mph /  24.1km/h 72.1% 0.00in /  0mm 207 W/m2
13:09 73.9 °F /  23.3 °C 64.5 °F /  18.1 °C 29.68in /  1005hPa SSW 1.4mph /  2.3km/h 7mph /  11.3km/h 72.3% 0.00in /  0mm 197 W/m2
13:14 73.8 °F /  23.2 °C 64.7 °F /  18.2 °C 29.67in /  1004.6hPa SSW 1.5mph /  2.4km/h 7mph /  11.3km/h 73% 0.00in /  0mm 200 W/m2
13:19 73.9 °F /  23.3 °C 65 °F /  18.3 °C 29.67in /  1004.6hPa South 1.6mph /  2.6km/h 10mph /  16.1km/h 73.9% 0.00in /  0mm 199 W/m2
13:24 73.8 °F /  23.2 °C 64.9 °F /  18.3 °C 29.67in /  1004.6hPa South 2.3mph /  3.7km/h 11mph /  17.7km/h 73.8% 0.00in /  0mm 190 W/m2
13:29 73.7 °F /  23.2 °C 65 °F /  18.3 °C 29.67in /  1004.6hPa South 1.7mph /  2.7km/h 11mph /  17.7km/h 74.1% 0.00in /  0mm 207 W/m2
13:34 73.7 °F /  23.2 °C 65 °F /  18.3 °C 29.67in /  1004.6hPa South 0.8mph /  1.3km/h 11mph /  17.7km/h 74.3% 0.00in /  0mm 239 W/m2
13:39 73.9 °F /  23.3 °C 65.4 °F /  18.6 °C 29.66in /  1004.3hPa South 0.7mph /  1.1km/h 6mph /  9.7km/h 74.7% 0.00in /  0mm 236 W/m2
13:44 74.3 °F /  23.5 °C 65.8 °F /  18.8 °C 29.66in /  1004.3hPa SSE 1mph /  1.6km/h 6mph /  9.7km/h 74.8% 0.00in /  0mm 216 W/m2
13:49 74.4 °F /  23.6 °C 65.7 °F /  18.7 °C 29.66in /  1004.3hPa SSE 1.1mph /  1.8km/h 6mph /  9.7km/h 74.1% 0.00in /  0mm 162 W/m2
13:54 74.4 °F /  23.6 °C 65.5 °F /  18.6 °C 29.66in /  1004.3hPa South 2.3mph /  3.7km/h 9mph /  14.5km/h 74% 0.00in /  0mm 171 W/m2
13:59 74.3 °F /  23.5 °C 65.5 °F /  18.6 °C 29.66in /  1004.3hPa South 2.8mph /  4.5km/h 14mph /  22.5km/h 74% 0.00in /  0mm 253 W/m2
14:04 74.5 °F /  23.6 °C 66 °F /  18.9 °C 29.65in /  1003.9hPa South 1.7mph /  2.7km/h 14mph /  22.5km/h 74.8% 0.00in /  0mm 253 W/m2
14:09 74.8 °F /  23.8 °C 65.8 °F /  18.8 °C 29.65in /  1003.9hPa SSW 2.2mph /  3.5km/h 7mph /  11.3km/h 73.5% 0.00in /  0mm 308 W/m2
14:14 75 °F /  23.9 °C 65.9 °F /  18.8 °C 29.65in /  1003.9hPa South 1.1mph /  1.8km/h 7mph /  11.3km/h 73.3% 0.00in /  0mm 285 W/m2
14:19 75 °F /  23.9 °C 66 °F /  18.9 °C 29.64in /  1003.6hPa South 1.5mph /  2.4km/h 7mph /  11.3km/h 73.4% 0.00in /  0mm 225 W/m2
14:24 75 °F /  23.9 °C 65.8 °F /  18.8 °C 29.64in /  1003.6hPa South 2.1mph /  3.4km/h 7mph /  11.3km/h 73% 0.00in /  0mm 334 W/m2
14:29 75.1 °F /  23.9 °C 65.9 °F /  18.8 °C 29.64in /  1003.6hPa SSE 2mph /  3.2km/h 7mph /  11.3km/h 72.9% 0.00in /  0mm 343 W/m2
14:34 75.3 °F /  24.1 °C 65.7 °F /  18.7 °C 29.64in /  1003.6hPa SSE 2mph /  3.2km/h 7mph /  11.3km/h 72.3% 0.00in /  0mm 251 W/m2
14:39 75.4 °F /  24.1 °C 65.5 °F /  18.6 °C 29.63in /  1003.3hPa South 2.8mph /  4.5km/h 9mph /  14.5km/h 71.3% 0.00in /  0mm 160 W/m2
14:44 75.4 °F /  24.1 °C 65.3 °F /  18.5 °C 29.63in /  1003.3hPa South 2.7mph /  4.3km/h 9mph /  14.5km/h 71% 0.00in /  0mm 213 W/m2
14:49 75.3 °F /  24.1 °C 65.3 °F /  18.5 °C 29.63in /  1003.3hPa SSE 1.6mph /  2.6km/h 9mph /  14.5km/h 71% 0.00in /  0mm 123 W/m2
14:54 75.3 °F /  24.1 °C 65 °F /  18.3 °C 29.63in /  1003.3hPa South 1.3mph /  2.1km/h 9mph /  14.5km/h 70.5% 0.00in /  0mm 102 W/m2
14:59 75.2 °F /  24 °C 64.6 °F /  18.1 °C 29.63in /  1003.3hPa South 2.6mph /  4.2km/h 10mph /  16.1km/h 69.5% 0.00in /  0mm 118 W/m2
15:04 75.2 °F /  24 °C 64.6 °F /  18.1 °C 29.63in /  1003.3hPa South 0.9mph /  1.4km/h 10mph /  16.1km/h 69.6% 0.00in /  0mm 188 W/m2
15:09 75.2 °F /  24 °C 64.8 °F /  18.2 °C 29.62in /  1002.9hPa South 2.8mph /  4.5km/h 9mph /  14.5km/h 70% 0.00in /  0mm 188 W/m2
15:14 75.2 °F /  24 °C 65 °F /  18.3 °C 29.62in /  1002.9hPa South 1.9mph /  3.1km/h 14mph /  22.5km/h 70.7% 0.00in /  0mm 206 W/m2
15:19 75.3 °F /  24.1 °C 64.9 °F /  18.3 °C 29.62in /  1002.9hPa SSE 2.1mph /  3.4km/h 14mph /  22.5km/h 70.1% 0.00in /  0mm 272 W/m2
15:24 75.3 °F /  24.1 °C 65 °F /  18.3 °C 29.62in /  1002.9hPa South 1.6mph /  2.6km/h 14mph /  22.5km/h 70.4% 0.00in /  0mm 410 W/m2
15:29 75.4 °F /  24.1 °C 65 °F /  18.3 °C 29.62in /  1002.9hPa SSE 2mph /  3.2km/h 14mph /  22.5km/h 70% 0.00in /  0mm 258 W/m2
15:34 75.3 °F /  24.1 °C 65 °F /  18.3 °C 29.62in /  1002.9hPa South 1.6mph /  2.6km/h 14mph /  22.5km/h 70.4% 0.00in /  0mm 111 W/m2
15:39 75 °F /  23.9 °C 65.1 °F /  18.4 °C 29.62in /  1002.9hPa SSW 1.4mph /  2.3km/h 12mph /  19.3km/h 71.3% 0.00in /  0mm 97 W/m2
15:44 74.7 °F /  23.7 °C 65 °F /  18.3 °C 29.62in /  1002.9hPa South 1.4mph /  2.3km/h 12mph /  19.3km/h 71.9% 0.00in /  0mm 95 W/m2
15:49 74.5 °F /  23.6 °C 65.1 °F /  18.4 °C 29.62in /  1002.9hPa South 2.1mph /  3.4km/h 12mph /  19.3km/h 72.5% 0.00in /  0mm 120 W/m2
15:54 74.4 °F /  23.6 °C 64.8 °F /  18.2 °C 29.62in /  1002.9hPa South 2.7mph /  4.3km/h 12mph /  19.3km/h 72.1% 0.00in /  0mm 120 W/m2
15:59 74.4 °F /  23.6 °C 64.9 °F /  18.3 °C 29.61in /  1002.6hPa South 2.7mph /  4.3km/h 12mph /  19.3km/h 72.2% 0.00in /  0mm 95 W/m2
16:00 74.4 °F /  23.6 °C 65.2 °F /  18.4 °C 29.61in /  1002.6hPa Calm   12mph /  19.3km/h 73% 0.00in /  0mm 91 W/m2
16:09 74.2 °F /  23.4 °C 65.4 °F /  18.6 °C 29.61in /  1002.6hPa SSW 1.2mph /  1.9km/h 7mph /  11.3km/h 74% 0.00in /  0mm 98 W/m2
16:14 74 °F /  23.3 °C 65.2 °F /  18.4 °C 29.61in /  1002.6hPa SSW 0.4mph /  0.6km/h 7mph /  11.3km/h 74% 0.00in /  0mm 98 W/m2
16:19 73.9 °F /  23.3 °C 65.1 °F /  18.4 °C 29.61in /  1002.6hPa SSE 1.7mph /  2.7km/h 10mph /  16.1km/h 74% 0.00in /  0mm 102 W/m2
16:24 73.9 °F /  23.3 °C 65.1 °F /  18.4 °C 29.60in /  1002.3hPa South 3.3mph /  5.3km/h 10mph /  16.1km/h 74.1% 0.00in /  0mm 77 W/m2
16:29 73.8 °F /  23.2 °C 65.3 °F /  18.5 °C 29.60in /  1002.3hPa South 1.3mph /  2.1km/h 10mph /  16.1km/h 74.8% 0.00in /  0mm 90 W/m2
16:34 73.7 °F /  23.2 °C 65.3 °F /  18.5 °C 29.60in /  1002.3hPa SSE 1.5mph /  2.4km/h 10mph /  16.1km/h 75% 0.00in /  0mm 49 W/m2
16:39 73.7 °F /  23.2 °C 65.3 °F /  18.5 °C 29.60in /  1002.3hPa South 2.5mph /  4km/h 7mph /  11.3km/h 75% 0.00in /  0mm 40 W/m2
16:44 73.6 °F /  23.1 °C 65.2 °F /  18.4 °C 29.60in /  1002.3hPa South 2.2mph /  3.5km/h 8mph /  12.9km/h 75% 0.00in /  0mm 51 W/m2
16:49 73.5 °F /  23.1 °C 65.3 °F /  18.5 °C 29.60in /  1002.3hPa South 1.9mph /  3.1km/h 8mph /  12.9km/h 75.6% 0.00in /  0mm 37 W/m2
16:54 73.3 °F /  22.9 °C 65.1 °F /  18.4 °C 29.60in /  1002.3hPa South 1.2mph /  1.9km/h 8mph /  12.9km/h 75.5% 0.00in /  0mm 32 W/m2
16:59 73.3 °F /  22.9 °C 65.1 °F /  18.4 °C 29.60in /  1002.3hPa South 0.8mph /  1.3km/h 8mph /  12.9km/h 75.7% 0.00in /  0mm 47 W/m2
17:04 73.1 °F /  22.8 °C 64.7 °F /  18.2 °C 29.59in /  1001.9hPa South 1.8mph /  2.9km/h 8mph /  12.9km/h 75% 0.00in /  0mm 30 W/m2
17:09 72.9 °F /  22.7 °C 64.6 °F /  18.1 °C 29.59in /  1001.9hPa South 1.9mph /  3.1km/h 10mph /  16.1km/h 75% 0.00in /  0mm 35 W/m2
17:14 72.8 °F /  22.7 °C 64.4 °F /  18 °C 29.59in /  1001.9hPa South 1.5mph /  2.4km/h 10mph /  16.1km/h 75% 0.00in /  0mm 35 W/m2
17:19 72.6 °F /  22.6 °C 64.3 °F /  17.9 °C 29.59in /  1001.9hPa South 0.9mph /  1.4km/h 10mph /  16.1km/h 75% 0.00in /  0mm 32 W/m2
17:24 72.5 °F /  22.5 °C 64.1 °F /  17.8 °C 29.59in /  1001.9hPa South 1mph /  1.6km/h 10mph /  16.1km/h 75% 0.00in /  0mm 19 W/m2
17:29 72.4 °F /  22.4 °C 63.7 °F /  17.6 °C 29.58in /  1001.6hPa SSE 1.2mph /  1.9km/h 10mph /  16.1km/h 74.3% 0.00in /  0mm 19 W/m2
17:34 72.2 °F /  22.3 °C 63.5 °F /  17.5 °C 29.59in /  1001.9hPa SSE 0.2mph /  0.3km/h 10mph /  16.1km/h 74% 0.00in /  0mm 18 W/m2
17:39 72.1 °F /  22.3 °C 63.2 °F /  17.3 °C 29.59in /  1001.9hPa South 2.2mph /  3.5km/h 8mph /  12.9km/h 73.5% 0.00in /  0mm 11 W/m2
17:44 72 °F /  22.2 °C 63.1 °F /  17.3 °C 29.59in /  1001.9hPa South 1.5mph /  2.4km/h 10mph /  16.1km/h 73.6% 0.00in /  0mm 7 W/m2
17:49 71.9 °F /  22.2 °C 63.1 °F /  17.3 °C 29.59in /  1001.9hPa South 2.2mph /  3.5km/h 11mph /  17.7km/h 74% 0.00in /  0mm 0 W/m2
17:54 71.7 °F /  22.1 °C 63.1 °F /  17.3 °C 29.59in /  1001.9hPa South 0.5mph /  0.8km/h 11mph /  17.7km/h 74.2% 0.00in /  0mm 0 W/m2
17:59 71.6 °F /  22 °C 63.3 °F /  17.4 °C 29.59in /  1001.9hPa SSE 0.4mph /  0.6km/h 11mph /  17.7km/h 75% 0.00in /  0mm 0 W/m2
18:04 71.5 °F /  21.9 °C 63.2 °F /  17.3 °C 29.59in /  1001.9hPa South 0.6mph /  1km/h 11mph /  17.7km/h 75.2% 0.00in /  0mm 0 W/m2
18:09 71.3 °F /  21.8 °C 63.4 °F /  17.4 °C 29.58in /  1001.6hPa South 2.2mph /  3.5km/h 9mph /  14.5km/h 76.1% 0.00in /  0mm 0 W/m2
18:14 71.2 °F /  21.8 °C 63.8 °F /  17.7 °C 29.58in /  1001.6hPa South 2.4mph /  3.9km/h 12mph /  19.3km/h 77.3% 0.00in /  0mm 0 W/m2
18:19 71.1 °F /  21.7 °C 63.9 °F /  17.7 °C 29.57in /  1001.2hPa South 1.2mph /  1.9km/h 12mph /  19.3km/h 78.1% 0.00in /  0mm 0 W/m2
18:24 71 °F /  21.7 °C 64.2 °F /  17.9 °C 29.58in /  1001.6hPa South 0.7mph /  1.1km/h 12mph /  19.3km/h 79% 0.00in /  0mm 0 W/m2
18:29 70.9 °F /  21.6 °C 64.4 °F /  18 °C 29.58in /  1001.6hPa South 0.8mph /  1.3km/h 12mph /  19.3km/h 80% 0.00in /  0mm 0 W/m2
18:34 70.9 °F /  21.6 °C 64.7 °F /  18.2 °C 29.58in /  1001.6hPa South 1.1mph /  1.8km/h 12mph /  19.3km/h 80.9% 0.00in /  0mm 0 W/m2
18:39 70.9 °F /  21.6 °C 64.8 °F /  18.2 °C 29.58in /  1001.6hPa South 1.8mph /  2.9km/h 9mph /  14.5km/h 81% 0.00in /  0mm 0 W/m2
18:44 71 °F /  21.7 °C 65.2 °F /  18.4 °C 29.58in /  1001.6hPa South 1.2mph /  1.9km/h 9mph /  14.5km/h 82% 0.00in /  0mm 0 W/m2
18:49 71 °F /  21.7 °C 65.2 °F /  18.4 °C 29.58in /  1001.6hPa South 2.1mph /  3.4km/h 10mph /  16.1km/h 82% 0.00in /  0mm 0 W/m2
18:54 70.9 °F /  21.6 °C 65.2 °F /  18.4 °C 29.59in /  1001.9hPa South 0.3mph /  0.5km/h 10mph /  16.1km/h 82.1% 0.00in /  0mm 0 W/m2
18:59 70.9 °F /  21.6 °C 65.5 °F /  18.6 °C 29.59in /  1001.9hPa South 0.4mph /  0.6km/h 10mph /  16.1km/h 83% 0.00in /  0mm 0 W/m2
19:04 70.8 °F /  21.6 °C 65.4 °F /  18.6 °C 29.59in /  1001.9hPa South 0.6mph /  1km/h 10mph /  16.1km/h 83% 0.00in /  0mm 0 W/m2
19:09 70.8 °F /  21.6 °C 65.4 °F /  18.6 °C 29.59in /  1001.9hPa SSE 1.5mph /  2.4km/h 7mph /  11.3km/h 83.2% 0.00in /  0mm 0 W/m2
19:14 70.8 °F /  21.6 °C 65.4 °F /  18.6 °C 29.60in /  1002.3hPa SSE 1.5mph /  2.4km/h 7mph /  11.3km/h 83% 0.00in /  0mm 0 W/m2
19:19 70.9 °F /  21.6 °C 65.8 °F /  18.8 °C 29.60in /  1002.3hPa South 0.4mph /  0.6km/h 7mph /  11.3km/h 83.8% 0.00in /  0mm 0 W/m2
19:24 71 °F /  21.7 °C 65.9 °F /  18.8 °C 29.60in /  1002.3hPa South 0.1mph /  0.2km/h 7mph /  11.3km/h 84% 0.00in /  0mm 0 W/m2
19:29 71 °F /  21.7 °C 65.9 °F /  18.8 °C 29.59in /  1001.9hPa South 0.2mph /  0.3km/h 7mph /  11.3km/h 83.9% 0.00in /  0mm 0 W/m2
19:34 71 °F /  21.7 °C 65.9 °F /  18.8 °C 29.61in /  1002.6hPa SW 1.3mph /  2.1km/h 7mph /  11.3km/h 84.1% 0.01in /  0.25mm 0 W/m2
19:39 70.7 °F /  21.5 °C 65.1 °F /  18.4 °C 29.61in /  1002.6hPa WSW 0.9mph /  1.4km/h 12mph /  19.3km/h 82.6% 0.01in /  0.25mm 0 W/m2
19:44 70 °F /  21.1 °C 64.1 °F /  17.8 °C 29.61in /  1002.6hPa WSW 0.5mph /  0.8km/h 12mph /  19.3km/h 81.5% 0.01in /  0.25mm 0 W/m2
19:49 69.4 °F /  20.8 °C 63.7 °F /  17.6 °C 29.60in /  1002.3hPa WSW 0.8mph /  1.3km/h 12mph /  19.3km/h 82.2% 0.01in /  0.25mm 0 W/m2
19:54 68.7 °F /  20.4 °C 63.4 °F /  17.4 °C 29.61in /  1002.6hPa West 1.7mph /  2.7km/h 12mph /  19.3km/h 83.2% 0.01in /  0.25mm 0 W/m2
19:59 68.2 °F /  20.1 °C 63.3 °F /  17.4 °C 29.61in /  1002.6hPa West 0.8mph /  1.3km/h 12mph /  19.3km/h 84.3% 0.01in /  0.25mm 0 W/m2
20:00 68 °F /  20 °C 63.3 °F /  17.4 °C 29.61in /  1002.6hPa Calm   12mph /  19.3km/h 85% 0.01in /  0.25mm 0 W/m2
20:09 67.5 °F /  19.7 °C 63 °F /  17.2 °C 29.61in /  1002.6hPa WNW 4.3mph /  6.9km/h 13mph /  20.9km/h 85.6% 0.01in /  0.25mm 0 W/m2
20:14 67.1 °F /  19.5 °C 62.6 °F /  17 °C 29.61in /  1002.6hPa WNW 2.4mph /  3.9km/h 13mph /  20.9km/h 85.5% 0.01in /  0.25mm 0 W/m2
20:19 66.8 °F /  19.3 °C 62.5 °F /  16.9 °C 29.61in /  1002.6hPa WNW 0.8mph /  1.3km/h 13mph /  20.9km/h 86% 0.01in /  0.25mm 0 W/m2
20:24 66.7 °F /  19.3 °C 62.4 °F /  16.9 °C 29.62in /  1002.9hPa West 0.7mph /  1.1km/h 13mph /  20.9km/h 86.2% 0.01in /  0.25mm 0 W/m2
20:29 66.4 °F /  19.1 °C 62.1 °F /  16.7 °C 29.62in /  1002.9hPa West 1.5mph /  2.4km/h 13mph /  20.9km/h 86% 0.01in /  0.25mm 0 W/m2
20:34 66.2 °F /  19 °C 61.9 °F /  16.6 °C 29.62in /  1002.9hPa West 2.1mph /  3.4km/h 13mph /  20.9km/h 86% 0.01in /  0.25mm 0 W/m2
20:39 66 °F /  18.9 °C 61.7 °F /  16.5 °C 29.62in /  1002.9hPa WNW 1.4mph /  2.3km/h 10mph /  16.1km/h 86% 0.01in /  0.25mm 0 W/m2
20:44 65.9 °F /  18.8 °C 61.6 °F /  16.4 °C 29.62in /  1002.9hPa West 0.3mph /  0.5km/h 10mph /  16.1km/h 86% 0.01in /  0.25mm 0 W/m2
20:49 65.8 °F /  18.8 °C 61.8 °F /  16.6 °C 29.62in /  1002.9hPa WNW 0.6mph /  1km/h 10mph /  16.1km/h 86.9% 0.01in /  0.25mm 0 W/m2
20:54 65.8 °F /  18.8 °C 61.9 °F /  16.6 °C 29.63in /  1003.3hPa Calm   10mph /  16.1km/h 87.4% 0.02in /  0.51mm 0 W/m2
20:59 65.8 °F /  18.8 °C 62.1 °F /  16.7 °C 29.63in /  1003.3hPa NW 0.2mph /  0.3km/h 10mph /  16.1km/h 88% 0.02in /  0.51mm 0 W/m2
21:04 65.7 °F /  18.7 °C 62 °F /  16.7 °C 29.63in /  1003.3hPa Calm   10mph /  16.1km/h 88% 0.02in /  0.51mm 0 W/m2
21:09 65.5 °F /  18.6 °C 62.1 °F /  16.7 °C 29.63in /  1003.3hPa NNW 0.2mph /  0.3km/h 6mph /  9.7km/h 88.8% 0.01in /  0.25mm 0 W/m2
21:14 65.3 °F /  18.5 °C 62 °F /  16.7 °C 29.63in /  1003.3hPa Calm   6mph /  9.7km/h 89% 0.02in /  0.51mm 0 W/m2
21:19 65.2 °F /  18.4 °C 62 °F /  16.7 °C 29.64in /  1003.6hPa Calm   6mph /  9.7km/h 89.4% 0.03in /  0.76mm 0 W/m2
21:24 65.2 °F /  18.4 °C 62.2 °F /  16.8 °C 29.64in /  1003.6hPa WNW 0.2mph /  0.3km/h 7mph /  11.3km/h 90% 0.04in /  1.02mm 0 W/m2
21:29 65 °F /  18.3 °C 62 °F /  16.7 °C 29.65in /  1003.9hPa NW 3.2mph /  5.1km/h 11mph /  17.7km/h 90% 0.05in /  1.27mm 0 W/m2
21:34 64.3 °F /  17.9 °C 60.8 °F /  16 °C 29.65in /  1003.9hPa NNW 4.6mph /  7.4km/h 15mph /  24.1km/h 88.2% 0.07in /  1.78mm 0 W/m2
21:39 63.3 °F /  17.4 °C 59 °F /  15 °C 29.65in /  1003.9hPa NW 3.5mph /  5.6km/h 15mph /  24.1km/h 85.9% 0.07in /  1.78mm 0 W/m2
21:44 62.6 °F /  17 °C 58.4 °F /  14.7 °C 29.67in /  1004.6hPa WNW 2.2mph /  3.5km/h 15mph /  24.1km/h 86% 0.07in /  1.78mm 0 W/m2
21:49 62.2 °F /  16.8 °C 58.1 °F /  14.5 °C 29.67in /  1004.6hPa NW 0.9mph /  1.4km/h 15mph /  24.1km/h 86.6% 0.07in /  1.78mm 0 W/m2
21:54 61.8 °F /  16.6 °C 57.9 °F /  14.4 °C 29.67in /  1004.6hPa NW 0.6mph /  1km/h 15mph /  24.1km/h 87% 0.08in /  2.03mm 0 W/m2
21:59 61.6 °F /  16.4 °C 58.1 °F /  14.5 °C 29.67in /  1004.6hPa Calm   15mph /  24.1km/h 88.2% 0.08in /  2.03mm 0 W/m2
22:04 61.4 °F /  16.3 °C 57.8 °F /  14.3 °C 29.66in /  1004.3hPa NNW 2.9mph /  4.7km/h 15mph /  24.1km/h 88.2% 0.08in /  2.03mm 0 W/m2
22:09 61 °F /  16.1 °C 57.4 °F /  14.1 °C 29.67in /  1004.6hPa NW 1mph /  1.6km/h 14mph /  22.5km/h 88% 0.07in /  1.78mm 0 W/m2
22:14 60.8 °F /  16 °C 57.4 °F /  14.1 °C 29.68in /  1005hPa NW 0.3mph /  0.5km/h 14mph /  22.5km/h 88.5% 0.07in /  1.78mm 0 W/m2
22:19 60.7 °F /  15.9 °C 57.5 °F /  14.2 °C 29.68in /  1005hPa NW 0.5mph /  0.8km/h 14mph /  22.5km/h 89% 0.07in /  1.78mm 0 W/m2
22:24 60.7 °F /  15.9 °C 57.5 °F /  14.2 °C 29.67in /  1004.6hPa NW 0.6mph /  1km/h 14mph /  22.5km/h 89.4% 0.07in /  1.78mm 0 W/m2
22:29 60.5 °F /  15.8 °C 57.6 °F /  14.2 °C 29.69in /  1005.3hPa West 1.2mph /  1.9km/h 14mph /  22.5km/h 90% 0.08in /  2.03mm 0 W/m2
22:34 60.4 °F /  15.8 °C 57.6 °F /  14.2 °C 29.69in /  1005.3hPa West 1.5mph /  2.4km/h 14mph /  22.5km/h 90.4% 0.08in /  2.03mm 0 W/m2
22:39 60.2 °F /  15.7 °C 57.3 °F /  14.1 °C 29.70in /  1005.6hPa WNW 1mph /  1.6km/h 7mph /  11.3km/h 90% 0.08in /  2.03mm 0 W/m2
22:44 59.9 °F /  15.5 °C 57 °F /  13.9 °C 29.69in /  1005.3hPa NNW 0.3mph /  0.5km/h 7mph /  11.3km/h 90% 0.11in /  2.79mm 0 W/m2
22:49 59.7 °F /  15.4 °C 56.7 °F /  13.7 °C 29.69in /  1005.3hPa WNW 0.9mph /  1.4km/h 9mph /  14.5km/h 90% 0.13in /  3.3mm 0 W/m2
22:54 59.4 °F /  15.2 °C 56.8 °F /  13.8 °C 29.69in /  1005.3hPa NNW 1.7mph /  2.7km/h 9mph /  14.5km/h 91% 0.15in /  3.81mm 0 W/m2
22:59 59.2 °F /  15.1 °C 56.6 °F /  13.7 °C 29.69in /  1005.3hPa NNW 0.1mph /  0.2km/h 9mph /  14.5km/h 91% 0.17in /  4.32mm 0 W/m2
23:04 59 °F /  15 °C 56.4 °F /  13.6 °C 29.68in /  1005hPa NNW 0.1mph /  0.2km/h 9mph /  14.5km/h 91% 0.17in /  4.32mm 0 W/m2
23:09 58.9 °F /  14.9 °C 56.5 °F /  13.6 °C 29.69in /  1005.3hPa NNW 0.4mph /  0.6km/h 4mph /  6.4km/h 91.7% 0.16in /  4.06mm 0 W/m2
23:14 58.8 °F /  14.9 °C 56.5 °F /  13.6 °C 29.68in /  1005hPa Calm   4mph /  6.4km/h 92% 0.17in /  4.32mm 0 W/m2
23:19 58.7 °F /  14.8 °C 56.4 °F /  13.6 °C 29.68in /  1005hPa Calm   4mph /  6.4km/h 92% 0.18in /  4.57mm 0 W/m2
23:24 58.6 °F /  14.8 °C 56.3 °F /  13.5 °C 29.69in /  1005.3hPa Calm   4mph /  6.4km/h 92% 0.18in /  4.57mm 0 W/m2
23:29 58.5 °F /  14.7 °C 56.2 °F /  13.4 °C 29.69in /  1005.3hPa Calm   4mph /  6.4km/h 92% 0.19in /  4.83mm 0 W/m2
23:34 58.4 °F /  14.7 °C 56.3 °F /  13.5 °C 29.68in /  1005hPa Calm   4mph /  6.4km/h 92.9% 0.19in /  4.83mm 0 W/m2
23:39 58.3 °F /  14.6 °C 56.3 °F /  13.5 °C 29.68in /  1005hPa Calm     93% 0.19in /  4.83mm 0 W/m2
23:43 58.2 °F /  14.6 °C 56.2 °F /  13.4 °C 29.67in /  1004.6hPa Calm     93% 0.19in /  4.83mm 0 W/m2
Hartford County Weather
Compliments of Weather Underground - 2 mb